createdAt,value
2022-11-12T00:01:58.495Z,23.45
2022-11-12T00:04:45.478Z,23.58
2022-11-12T00:07:31.772Z,22.13
2022-11-12T00:10:18.763Z,23.02
2022-11-12T00:13:05.389Z,22.52
2022-11-12T00:15:53.594Z,24.98
2022-11-12T00:18:39.831Z,21.30
2022-11-12T00:21:26.209Z,22.35
2022-11-12T00:24:12.538Z,21.40
2022-11-12T00:26:59.062Z,24.73
2022-11-12T00:29:45.556Z,26.88
2022-11-12T00:32:33.530Z,22.00
2022-11-12T00:35:20.159Z,22.48
2022-11-12T00:38:06.609Z,23.00
2022-11-12T00:40:52.957Z,22.20
2022-11-12T00:43:39.451Z,25.77
2022-11-12T00:46:25.940Z,27.48
2022-11-12T00:49:13.677Z,26.17
2022-11-12T00:52:00.300Z,24.17
2022-11-12T00:54:46.840Z,28.77
2022-11-12T00:57:33.417Z,24.27
2022-11-12T01:00:20.764Z,27.27
2022-11-12T01:03:07.517Z,25.77
2022-11-12T01:05:55.226Z,25.20
2022-11-12T01:08:42.533Z,26.08
2022-11-12T01:11:30.984Z,30.98
2022-11-12T01:14:17.426Z,27.52
2022-11-12T01:17:03.664Z,23.23
2022-11-12T01:19:50.796Z,28.38
2022-11-12T01:22:38.931Z,27.75
2022-11-12T01:25:25.441Z,26.23
2022-11-12T01:28:11.746Z,26.35
2022-11-12T01:30:58.300Z,28.92
2022-11-12T01:33:45.996Z,28.88
2022-11-12T01:36:35.144Z,26.08
2022-11-12T01:39:23.219Z,28.35
2022-11-12T01:42:09.994Z,28.55
2022-11-12T01:44:56.604Z,26.15
2022-11-12T01:47:45.611Z,25.52
2022-11-12T01:50:35.053Z,30.70
2022-11-12T01:53:24.261Z,27.55
2022-11-12T01:56:13.084Z,30.58
2022-11-12T01:59:05.252Z,27.27
2022-11-12T02:01:51.859Z,27.27
2022-11-12T02:04:39.511Z,25.38
2022-11-12T02:07:26.891Z,26.95
2022-11-12T02:10:14.284Z,26.25
2022-11-12T02:13:20.457Z,27.77
2022-11-12T02:16:10.061Z,30.10
2022-11-12T02:18:56.590Z,28.40
2022-11-12T02:21:45.487Z,30.27
2022-11-12T02:24:37.939Z,28.02
2022-11-12T02:27:25.170Z,30.70
2022-11-12T02:30:12.528Z,30.77
2022-11-12T02:32:59.761Z,25.58
2022-11-12T02:35:46.562Z,29.08
2022-11-12T02:38:34.704Z,30.42
2022-11-12T02:41:21.270Z,28.75
2022-11-12T02:44:07.963Z,31.75
2022-11-12T02:46:54.328Z,28.30
2022-11-12T02:49:40.767Z,26.08
2022-11-12T02:52:27.713Z,28.73
2022-11-12T02:55:15.484Z,29.65
2022-11-12T02:58:02.232Z,27.13
2022-11-12T03:00:49.357Z,27.88
2022-11-12T03:03:35.896Z,35.00
2022-11-12T03:06:22.336Z,25.25
2022-11-12T03:09:08.753Z,27.08
2022-11-12T03:11:56.353Z,26.38
2022-11-12T03:14:43.032Z,32.67
2022-11-12T03:17:29.760Z,24.83
2022-11-12T03:20:16.935Z,26.60
2022-11-12T03:23:07.550Z,27.70
2022-11-12T03:25:54.233Z,27.33
2022-11-12T03:28:42.274Z,32.22
2022-11-12T03:31:28.826Z,23.65
2022-11-12T03:34:15.294Z,28.33
2022-11-12T03:37:03.089Z,24.65
2022-11-12T03:39:49.280Z,27.00
2022-11-12T03:42:35.523Z,27.38
2022-11-12T03:45:25.493Z,25.20
2022-11-12T03:48:11.952Z,24.55
2022-11-12T03:50:59.312Z,22.67
2022-11-12T03:53:46.052Z,24.48
2022-11-12T03:56:32.467Z,24.00
2022-11-12T03:59:18.864Z,27.85
2022-11-12T04:02:06.609Z,25.48
2022-11-12T04:05:11.497Z,26.90
2022-11-12T04:08:17.475Z,29.75
2022-11-12T04:11:06.600Z,29.48
2022-11-12T04:13:53.244Z,30.50
2022-11-12T04:16:56.679Z,24.40
2022-11-12T04:20:02.252Z,23.08
2022-11-12T04:22:48.836Z,26.58
2022-11-12T04:25:52.461Z,27.95
2022-11-12T04:28:39.230Z,28.75
2022-11-12T04:31:24.421Z,25.80
2022-11-12T04:34:28.715Z,26.10
2022-11-12T04:37:21.023Z,26.83
2022-11-12T04:40:25.353Z,30.53
2022-11-12T04:43:32.234Z,29.30
2022-11-12T04:46:18.900Z,28.60
2022-11-12T04:49:05.320Z,25.17
2022-11-12T04:52:14.829Z,30.03
2022-11-12T04:55:03.054Z,27.00
2022-11-12T04:57:49.382Z,28.77
2022-11-12T05:00:35.813Z,24.90
2022-11-12T05:03:22.210Z,30.23
2022-11-12T05:06:30.044Z,25.20
2022-11-12T05:09:16.619Z,27.20
2022-11-12T05:12:05.170Z,29.33
2022-11-12T05:14:51.966Z,25.50
2022-11-12T05:17:42.762Z,23.95
2022-11-12T05:20:29.425Z,27.40
2022-11-12T05:23:14.777Z,23.73
2022-11-12T05:26:01.149Z,24.13
2022-11-12T05:28:49.070Z,27.27
2022-11-12T05:31:36.345Z,24.23
2022-11-12T05:34:23.226Z,25.27
2022-11-12T05:37:11.147Z,24.73
2022-11-12T05:39:57.698Z,21.87
2022-11-12T05:42:44.048Z,20.97
2022-11-12T05:45:31.857Z,24.10
2022-11-12T05:48:23.996Z,20.60
2022-11-12T05:51:14.187Z,25.57
2022-11-12T05:54:01.181Z,24.07
2022-11-12T05:56:48.187Z,22.47
2022-11-12T05:59:34.626Z,31.23
2022-11-12T06:02:22.746Z,23.83
2022-11-12T06:05:10.106Z,22.93
2022-11-12T06:07:56.712Z,26.87
2022-11-12T06:10:43.293Z,25.60
2022-11-12T06:13:30.039Z,24.23
2022-11-12T06:16:16.618Z,26.17
2022-11-12T06:19:04.974Z,28.20
2022-11-12T06:21:51.366Z,25.67
2022-11-12T06:24:38.140Z,22.03
2022-11-12T06:27:24.697Z,21.90
2022-11-12T06:30:12.193Z,25.20
2022-11-12T06:32:58.709Z,24.03
2022-11-12T06:35:46.472Z,22.27
2022-11-12T06:38:34.109Z,25.23
2022-11-12T06:41:20.549Z,24.10
2022-11-12T06:44:07.401Z,25.50
2022-11-12T06:46:53.867Z,26.83
2022-11-12T06:49:40.368Z,26.87
2022-11-12T06:52:28.588Z,33.77
2022-11-12T06:55:15.395Z,26.50
2022-11-12T06:58:04.743Z,29.67
2022-11-12T07:00:51.352Z,29.50
2022-11-12T07:03:37.825Z,29.50
2022-11-12T07:06:24.657Z,30.17
2022-11-12T07:09:13.001Z,28.20
2022-11-12T07:11:59.464Z,27.63
2022-11-12T07:14:46.683Z,29.13
2022-11-12T07:17:33.300Z,32.33
2022-11-12T07:20:19.615Z,26.07
2022-11-12T07:23:06.246Z,31.43
2022-11-12T07:25:58.938Z,26.10
2022-11-12T07:28:46.219Z,24.53
2022-11-12T07:31:32.652Z,26.20
2022-11-12T07:34:18.954Z,27.50
2022-11-12T07:37:05.367Z,27.33
2022-11-12T07:39:51.834Z,25.00
2022-11-12T07:42:39.526Z,26.77
2022-11-12T07:45:26.353Z,29.23
2022-11-12T07:48:12.994Z,31.53
2022-11-12T07:51:03.563Z,26.80
2022-11-12T07:53:56.237Z,25.63
2022-11-12T07:56:45.413Z,34.20
2022-11-12T07:59:33.216Z,28.10
2022-11-12T08:02:19.897Z,27.77
2022-11-12T08:05:13.592Z,27.00
2022-11-12T08:08:03.086Z,24.93
2022-11-12T08:10:49.648Z,25.50
2022-11-12T08:13:36.076Z,28.73
2022-11-12T08:16:24.856Z,26.42
2022-11-12T08:19:14.312Z,26.33
2022-11-12T08:22:01.462Z,27.52
2022-11-12T08:24:47.789Z,32.35
2022-11-12T08:27:34.240Z,27.67
2022-11-12T08:30:20.776Z,26.33
2022-11-12T08:33:08.822Z,30.25
2022-11-12T08:35:55.732Z,27.98
2022-11-12T08:38:42.230Z,28.05
2022-11-12T08:41:28.985Z,25.80
2022-11-12T08:44:15.539Z,24.15
2022-11-12T08:47:02.397Z,28.38
2022-11-12T08:49:50.230Z,22.27
2022-11-12T08:52:36.979Z,23.60
2022-11-12T08:55:23.288Z,20.88
2022-11-12T08:58:10.973Z,20.65
2022-11-12T09:00:58.184Z,20.70
2022-11-12T09:03:44.636Z,18.15
2022-11-12T09:06:32.432Z,19.55
2022-11-12T09:09:19.065Z,19.73
2022-11-12T09:12:13.685Z,21.20
2022-11-12T09:15:35.573Z,20.27
2022-11-12T09:18:13.352Z,19.10
2022-11-12T09:21:04.797Z,22.98
2022-11-12T09:23:52.693Z,20.73
2022-11-12T09:26:39.074Z,21.42
2022-11-12T09:29:25.686Z,17.70
2022-11-12T09:32:12.079Z,20.70
2022-11-12T09:34:58.325Z,21.20
2022-11-12T09:37:44.836Z,21.02
2022-11-12T09:40:45.523Z,20.15
2022-11-12T09:43:35.300Z,17.35
2022-11-12T09:46:37.678Z,19.27
2022-11-12T09:49:26.576Z,22.38
2022-11-12T09:52:17.898Z,20.25
2022-11-12T09:55:11.037Z,23.48
2022-11-12T09:57:59.439Z,19.08
2022-11-12T10:00:55.609Z,19.73
2022-11-12T10:03:52.672Z,19.52
2022-11-12T10:06:48.215Z,21.10
2022-11-12T10:09:45.536Z,21.55
2022-11-12T10:12:43.806Z,21.17
2022-11-12T10:16:08.873Z,21.85
2022-11-12T10:19:17.388Z,20.55
2022-11-12T10:22:22.825Z,23.35
2022-11-12T10:25:15.924Z,21.13
2022-11-12T10:28:09.263Z,20.90
2022-11-12T10:31:01.927Z,21.33
2022-11-12T10:33:48.885Z,23.50
2022-11-12T10:36:37.990Z,22.90
2022-11-12T10:39:36.096Z,23.42
2022-11-12T10:42:24.016Z,21.00
2022-11-12T10:45:22.133Z,20.38
2022-11-12T10:48:27.020Z,21.52
2022-11-12T10:51:22.076Z,21.50
2022-11-12T10:54:28.914Z,21.10
2022-11-12T10:57:23.961Z,24.33
2022-11-12T11:00:19.008Z,23.02
2022-11-12T11:03:16.595Z,22.38
2022-11-12T11:06:06.245Z,21.90
2022-11-12T11:08:54.491Z,22.08
2022-11-12T11:11:50.145Z,23.05
2022-11-12T11:14:38.359Z,23.65
2022-11-12T11:17:25.101Z,23.90
2022-11-12T11:20:19.469Z,24.42
2022-11-12T11:23:15.896Z,22.42
2022-11-12T11:26:14.391Z,24.98
2022-11-12T11:29:21.937Z,24.65
2022-11-12T11:32:18.753Z,25.75
2022-11-12T11:35:19.308Z,24.15
2022-11-12T11:38:22.260Z,26.40
2022-11-12T11:41:22.628Z,24.45
2022-11-12T11:44:22.114Z,28.30
2022-11-12T11:47:23.515Z,24.83
2022-11-12T11:50:23.400Z,24.70
2022-11-12T11:53:22.385Z,26.35
2022-11-12T11:56:17.299Z,26.77
2022-11-12T11:59:23.936Z,25.25
2022-11-12T12:02:33.028Z,24.13
2022-11-12T12:05:33.936Z,23.95
2022-11-12T12:08:30.947Z,22.33
2022-11-12T12:11:23.781Z,25.75
2022-11-12T12:14:32.235Z,28.02
2022-11-12T12:17:31.926Z,28.23
2022-11-12T12:20:26.708Z,25.73
2022-11-12T12:23:25.516Z,22.90
2022-11-12T12:26:17.865Z,23.15
2022-11-12T12:29:09.420Z,21.02
2022-11-12T12:32:02.529Z,22.65
2022-11-12T12:34:54.252Z,21.85
2022-11-12T12:37:47.127Z,26.00
2022-11-12T12:40:36.706Z,21.48
2022-11-12T12:43:31.733Z,21.30
2022-11-12T12:46:23.901Z,21.48
2022-11-12T12:49:17.450Z,23.08
2022-11-12T12:52:04.099Z,21.58
2022-11-12T12:54:58.688Z,21.85
2022-11-12T12:57:45.480Z,20.75
2022-11-12T13:00:40.834Z,23.35
2022-11-12T13:04:02.358Z,21.40
2022-11-12T13:06:55.530Z,20.92
2022-11-12T13:09:42.421Z,22.88
2022-11-12T13:13:03.229Z,21.27
2022-11-12T13:15:53.772Z,26.17
2022-11-12T13:19:02.060Z,20.75
2022-11-12T13:21:48.757Z,19.67
2022-11-12T13:25:05.295Z,18.85
2022-11-12T13:28:12.866Z,20.95
2022-11-12T13:31:05.492Z,21.35
2022-11-12T13:33:52.028Z,20.83
2022-11-12T13:36:39.008Z,21.98
2022-11-12T13:39:26.363Z,20.00
2022-11-12T13:42:32.422Z,21.38
2022-11-12T13:45:21.451Z,21.77
2022-11-12T13:48:13.269Z,20.60
2022-11-12T13:51:03.546Z,19.65
2022-11-12T13:53:49.913Z,19.83
2022-11-12T13:56:37.568Z,19.45
2022-11-12T13:59:26.725Z,21.50
2022-11-12T14:02:22.197Z,20.20
2022-11-12T14:05:17.761Z,18.60
2022-11-12T14:08:32.013Z,17.67
2022-11-12T14:11:36.505Z,20.45
2022-11-12T14:14:35.321Z,18.10
2022-11-12T14:17:34.075Z,21.52
2022-11-12T14:20:26.766Z,21.33
2022-11-12T14:23:20.080Z,18.73
2022-11-12T14:26:12.616Z,20.77
2022-11-12T14:28:59.813Z,20.80
2022-11-12T14:31:46.677Z,18.80
2022-11-12T14:34:35.588Z,21.92
2022-11-12T14:37:41.690Z,23.90
2022-11-12T14:40:32.484Z,23.55
2022-11-12T14:43:33.816Z,23.95
2022-11-12T14:46:26.583Z,23.67
2022-11-12T14:49:23.906Z,22.30
2022-11-12T14:52:16.876Z,25.30
2022-11-12T14:55:13.626Z,27.02
2022-11-12T14:58:01.487Z,27.45
2022-11-12T15:05:08.549Z,24.13
2022-11-12T15:08:11.954Z,27.05
2022-11-12T15:11:32.409Z,25.25
2022-11-12T15:14:39.286Z,23.42
2022-11-12T15:17:58.665Z,24.63
2022-11-12T15:21:28.243Z,23.42
2022-11-12T15:25:03.935Z,23.98
2022-11-12T15:27:56.492Z,22.02
2022-11-12T15:31:08.028Z,25.00
2022-11-12T15:34:01.180Z,24.80
2022-11-12T15:36:58.936Z,26.65
2022-11-12T15:39:50.069Z,26.85
2022-11-12T15:42:45.051Z,25.17
2022-11-12T15:45:35.923Z,23.83
2022-11-12T15:48:31.694Z,29.20
2022-11-12T15:51:32.735Z,28.95
2022-11-12T15:54:26.030Z,28.30
2022-11-12T15:57:30.147Z,29.08
2022-11-12T16:00:20.573Z,37.25
2022-11-12T16:03:20.082Z,30.88
2022-11-12T16:06:13.630Z,32.95
2022-11-12T16:09:07.357Z,37.30
2022-11-12T16:12:17.511Z,35.08
2022-11-12T16:15:22.907Z,41.33
2022-11-12T16:18:17.841Z,39.03
2022-11-12T16:21:19.521Z,42.45
2022-11-12T16:24:12.561Z,50.97
2022-11-12T16:27:12.545Z,46.17
2022-11-12T16:30:12.243Z,44.25
2022-11-12T16:33:05.612Z,42.38
2022-11-12T16:35:58.207Z,41.50
2022-11-12T16:38:50.596Z,50.65
2022-11-12T16:41:46.110Z,43.75
2022-11-12T16:44:38.796Z,43.95
2022-11-12T16:47:45.637Z,49.75
2022-11-12T16:50:34.669Z,48.40
2022-11-12T16:53:34.309Z,48.33
2022-11-12T16:56:24.651Z,46.08
2022-11-12T16:59:35.226Z,39.88
2022-11-12T17:02:28.147Z,42.30
2022-11-12T17:05:32.909Z,39.22
2022-11-12T17:08:34.060Z,39.58
2022-11-12T17:11:56.970Z,35.83
2022-11-12T17:14:59.276Z,32.70
2022-11-12T17:17:48.065Z,31.67
2022-11-12T17:20:41.497Z,30.80
2022-11-12T17:23:38.034Z,32.83
2022-11-12T17:26:38.928Z,33.80
2022-11-12T17:29:28.958Z,33.20
2022-11-12T17:32:23.756Z,32.80
2022-11-12T17:35:14.303Z,36.53
2022-11-12T17:38:03.407Z,34.13
2022-11-12T17:41:05.894Z,32.50
2022-11-12T17:44:01.562Z,35.70
2022-11-12T17:46:51.135Z,36.90
2022-11-12T17:49:40.454Z,33.85
2022-11-12T17:52:44.619Z,46.67
2022-11-12T17:55:41.618Z,38.83
2022-11-12T17:58:37.543Z,39.55
2022-11-12T18:02:01.606Z,36.22
2022-11-12T18:04:56.933Z,33.13
2022-11-12T18:07:49.633Z,34.70
2022-11-12T18:10:47.801Z,34.33
2022-11-12T18:13:42.349Z,37.05
2022-11-12T18:16:52.248Z,34.05
2022-11-12T18:19:46.843Z,40.08
2022-11-12T18:22:45.042Z,34.17
2022-11-12T18:25:40.837Z,35.97
2022-11-12T18:28:32.054Z,31.23
2022-11-12T18:31:26.586Z,30.52
2022-11-12T18:34:22.976Z,33.55
2022-11-12T18:37:12.653Z,33.70
2022-11-12T18:40:01.050Z,34.63
2022-11-12T18:42:55.200Z,33.95
2022-11-12T18:45:49.781Z,29.38
2022-11-12T18:48:46.770Z,28.75
2022-11-12T18:51:43.022Z,31.13
2022-11-12T18:54:33.035Z,31.42
2022-11-12T18:57:26.551Z,29.67
2022-11-12T19:00:37.581Z,30.38
2022-11-12T19:03:31.553Z,31.73
2022-11-12T19:06:22.166Z,31.88
2022-11-12T19:09:28.676Z,35.58
2022-11-12T19:12:20.828Z,35.75
2022-11-12T19:15:13.356Z,35.30
2022-11-12T19:18:05.131Z,33.22
2022-11-12T19:21:07.249Z,34.55
2022-11-12T19:23:59.590Z,31.52
2022-11-12T19:26:59.439Z,36.15
2022-11-12T19:29:50.155Z,29.10
2022-11-12T19:32:40.445Z,29.02
2022-11-12T19:35:30.065Z,29.85
2022-11-12T19:38:25.402Z,29.17
2022-11-12T19:41:19.370Z,29.20
2022-11-12T19:44:10.468Z,29.23
2022-11-12T19:47:02.136Z,31.60
2022-11-12T19:49:59.295Z,29.15
2022-11-12T19:52:50.714Z,32.35
2022-11-12T19:55:40.986Z,27.58
2022-11-12T19:58:40.152Z,29.13
2022-11-12T20:01:42.099Z,26.35
2022-11-12T20:04:31.132Z,31.75
2022-11-12T20:07:20.148Z,31.02
2022-11-12T20:10:09.256Z,26.95
2022-11-12T20:13:04.610Z,29.25
2022-11-12T20:15:56.749Z,30.00
2022-11-12T20:18:51.138Z,28.73
2022-11-12T20:21:42.286Z,30.50
2022-11-12T20:24:34.072Z,32.28
2022-11-12T20:27:24.910Z,30.98
2022-11-12T20:30:17.320Z,30.38
2022-11-12T20:33:07.658Z,31.67
2022-11-12T20:36:10.924Z,29.35
2022-11-12T20:39:02.730Z,28.17
2022-11-12T20:41:53.744Z,28.77
2022-11-12T20:44:47.767Z,32.63
2022-11-12T20:47:36.266Z,29.90
2022-11-12T20:50:28.502Z,34.15
2022-11-12T20:53:21.149Z,32.30
2022-11-12T20:56:14.513Z,37.28
2022-11-12T20:59:08.797Z,40.95
2022-11-12T21:02:07.538Z,41.70
2022-11-12T21:04:56.550Z,41.35
2022-11-12T21:07:49.894Z,42.42
2022-11-12T21:10:42.461Z,43.80
2022-11-12T21:13:38.795Z,47.60
2022-11-12T21:16:27.798Z,46.85
2022-11-12T21:19:18.295Z,47.05
2022-11-12T21:22:10.310Z,47.50
2022-11-12T21:24:59.082Z,49.03
2022-11-12T21:27:53.519Z,55.13
2022-11-12T21:30:53.282Z,45.72
2022-11-12T21:33:44.598Z,44.17
2022-11-12T21:36:41.600Z,44.03
2022-11-12T21:39:30.301Z,40.97
2022-11-12T21:42:19.160Z,42.17
2022-11-12T21:45:16.310Z,39.53
2022-11-12T21:48:04.965Z,37.72
2022-11-12T21:51:29.765Z,39.38
2022-11-12T21:54:43.944Z,41.78
2022-11-12T21:57:42.614Z,36.13
2022-11-12T22:00:41.879Z,37.42
2022-11-12T22:03:33.792Z,41.40
2022-11-12T22:06:23.560Z,53.08
2022-11-12T22:09:21.942Z,51.70
2022-11-12T22:12:12.411Z,53.33
2022-11-12T22:15:02.268Z,64.15
2022-11-12T22:17:52.408Z,75.10
2022-11-12T22:20:45.162Z,64.80
2022-11-12T22:23:41.077Z,61.72
2022-11-12T22:26:39.150Z,56.33
2022-11-12T22:29:31.287Z,55.22
2022-11-12T22:32:20.041Z,56.03
2022-11-12T22:35:15.411Z,52.35
2022-11-12T22:38:05.681Z,51.53
2022-11-12T22:40:52.214Z,52.13
2022-11-12T22:43:39.026Z,52.33
2022-11-12T22:46:27.734Z,57.53
2022-11-12T22:49:14.256Z,46.97
2022-11-12T22:52:02.173Z,44.13
2022-11-12T22:54:48.840Z,42.33
2022-11-12T22:57:35.342Z,38.95
2022-11-12T23:00:30.222Z,39.87
2022-11-12T23:03:16.842Z,39.90
2022-11-12T23:06:06.472Z,40.42
2022-11-12T23:08:56.258Z,38.53
2022-11-12T23:11:42.692Z,35.97
2022-11-12T23:14:29.083Z,32.05
2022-11-12T23:17:15.502Z,33.45
2022-11-12T23:20:01.994Z,37.75
2022-11-12T23:22:48.369Z,30.10
2022-11-12T23:25:36.212Z,31.87
2022-11-12T23:28:22.677Z,31.95
2022-11-12T23:31:13.358Z,31.75
2022-11-12T23:34:02.090Z,33.42
2022-11-12T23:36:48.600Z,33.10
2022-11-12T23:39:35.149Z,31.23
2022-11-12T23:42:23.497Z,35.53
2022-11-12T23:45:11.412Z,34.20
2022-11-12T23:48:00.110Z,36.27
2022-11-12T23:50:48.662Z,32.93
2022-11-12T23:53:36.161Z,34.33
2022-11-12T23:56:22.808Z,37.65
2022-11-12T23:59:10.888Z,33.78
